Frankston, Texas
Current Conditions -  °F | °C
As of 7:35 PM on Monday 20 Oct 2014 (Local Time) from KF44 Reporting Station
Clear Clear  
Wind Chill: 64°   Ceiling: Unl
Heat Index: 64°   Visibility: 10mi
Dew Point: 59°   Wind: 0mph
Humidity: 83%   Direction: NA
Pressure: 30.02"   Gusts: NA
Location:  32.05°N, 95.51°W
Report Text: KF44 210035Z AUTO 00000KT 10SM CLR 18/15 A3002 RMK AO2
Loading
Personal Weather Stations






























Interactive Weather Map
Tropical Storm Tracking
New forecast layout! Learn more

10-Day Weather Forecast

Advertisements
Track Severe Weather on mobile